Time;durP1;ratioP1;P1;durP2;ratioP2;P2;SDS_P1;SDS_P2;PMS_P1;PMS_P2;Temp;Humidity;BMP_temperature;BMP_pressure;BME280_temperature;BME280_humidity;BME280_pressure;Samples;Min_cycle;Max_cycle;Signal;HPM_P1;HPM_P2
2021/08/13 00:01:29;;;;;;;5.40;4.15;;;;;;;30.30;39.67;101571.69;143727;585;47011;-89
2021/08/13 00:03:56;;;;;;;7.22;4.15;;;;;;;30.28;39.40;101576.72;143728;604;47002;-88
2021/08/13 00:06:23;;;;;;;6.37;4.82;;;;;;;30.27;39.52;101581.44;143727;710;45922;-88
2021/08/13 00:08:51;;;;;;;4.82;4.03;;;;;;;30.24;40.21;101585.66;143730;635;47006;-89
2021/08/13 00:11:19;;;;;;;7.22;4.22;;;;;;;30.22;39.91;101579.63;143727;567;47008;-91
2021/08/13 00:13:46;;;;;;;7.03;4.40;;;;;;;30.21;39.78;101585.44;143728;594;47002;-88
2021/08/13 00:16:13;;;;;;;5.62;4.10;;;;;;;30.22;40.29;101574.06;143727;583;45925;-88
2021/08/13 00:18:41;;;;;;;5.03;4.45;;;;;;;30.21;40.14;101572.44;143729;567;47006;-87
2021/08/13 00:21:08;;;;;;;7.28;4.68;;;;;;;30.22;38.93;101564.94;143723;590;47008;-88
2021/08/13 00:23:35;;;;;;;6.32;4.22;;;;;;;30.23;37.71;101574.88;143726;580;47002;-88
2021/08/13 00:26:02;;;;;;;5.43;4.05;;;;;;;30.20;38.65;101579.09;143729;700;45925;-86
2021/08/13 00:28:29;;;;;;;4.97;3.87;;;;;;;30.20;38.59;101578.28;143730;598;47006;-89
2021/08/13 00:30:56;;;;;;;6.05;3.70;;;;;;;30.20;38.88;101581.88;143727;601;46010;-87
2021/08/13 00:33:24;;;;;;;6.65;4.53;;;;;;;30.18;39.19;101578.59;143725;592;48013;-88
2021/08/13 00:35:51;;;;;;;6.87;3.85;;;;;;;30.22;38.24;101584.31;143726;680;49004;-88
2021/08/13 00:38:19;;;;;;;5.85;4.05;;;;;;;30.20;38.20;101579.09;143728;603;47002;-88
2021/08/13 00:40:46;;;;;;;6.97;4.28;;;;;;;30.19;38.55;101579.41;143726;567;47010;-87
2021/08/13 00:43:14;;;;;;;6.25;4.37;;;;;;;30.18;38.31;101578.59;143722;590;47006;-89
2021/08/13 00:45:41;;;;;;;6.70;4.00;;;;;;;30.19;38.42;101580.25;143730;580;45919;-88
2021/08/13 00:48:08;;;;;;;7.05;3.90;;;;;;;30.20;38.52;101592.13;143730;575;47002;-87
2021/08/13 00:50:36;;;;;;;8.05;4.55;;;;;;;30.20;38.34;101589.34;143725;617;47010;-89
2021/08/13 00:53:03;;;;;;;11.30;3.95;;;;;;;30.20;39.12;101583.81;143727;573;46006;-90
2021/08/13 00:55:30;;;;;;;9.43;4.47;;;;;;;30.17;39.03;101588.03;143726;595;45919;-89
2021/08/13 00:57:58;;;;;;;5.40;4.43;;;;;;;30.17;39.23;101590.00;143723;604;49002;-88
2021/08/13 01:00:27;;;;;;;7.43;4.07;;;;;;;30.15;38.73;101586.72;143724;567;47011;-88
2021/08/13 01:02:54;;;;;;;9.43;4.43;;;;;;;30.15;38.87;101586.72;143725;614;47002;-87
2021/08/13 01:05:21;;;;;;;8.13;4.93;;;;;;;30.08;39.54;101579.66;143726;644;45922;-90
2021/08/13 01:07:49;;;;;;;10.50;4.20;;;;;;;30.04;39.29;101577.81;143726;575;48004;-89
2021/08/13 01:10:16;;;;;;;5.87;4.32;;;;;;;30.03;38.60;101578.94;143724;581;47013;-87
2021/08/13 01:13:04;;;;;;;4.65;3.55;;;;;;;30.02;38.86;101575.34;143726;620;47002;-88
2021/08/13 01:15:36;;;;;;;7.47;4.10;;;;;;;29.98;38.99;101585.41;143728;594;45925;-87
2021/08/13 01:18:17;;;;;;;9.93;4.43;;;;;;;29.94;38.85;101581.59;143728;590;47002;-88
2021/08/13 01:21:22;;;;;;;10.15;4.15;;;;;;;29.92;38.62;101586.63;143724;572;47010;-90
2021/08/13 01:24:01;;;;;;;8.70;3.95;;;;;;;29.90;38.96;101586.09;143725;569;47004;-87
2021/08/13 01:26:35;;;;;;;5.47;3.87;;;;;;;29.90;39.25;101580.56;143724;623;47002;-89
2021/08/13 01:29:23;;;;;;;;;;;;;;;29.89;39.65;101578.91;143728;984;48006;-89
2021/08/13 01:32:25;;;;;;;6.32;4.05;;;;;;;29.89;39.51;101576.16;143727;610;47013;-88
2021/08/13 01:34:59;;;;;;;9.10;4.40;;;;;;;29.87;39.99;101578.41;143723;627;47002;-89
2021/08/13 01:37:28;;;;;;;;;;;;;;;29.84;40.09;101574.31;143730;981;48019;-87
2021/08/13 01:39:59;;;;;;;6.43;4.00;;;;;;;29.87;39.05;101575.63;143733;646;47002;-88
2021/08/13 01:42:29;;;;;;;4.68;4.18;;;;;;;29.94;39.13;101576.06;143724;579;47010;-90
2021/08/13 01:44:58;;;;;;;6.18;4.25;;;;;;;29.95;39.48;101580.47;143725;589;47002;-87
2021/08/13 01:47:26;;;;;;;8.57;4.15;;;;;;;29.97;38.65;101580.16;143727;582;45925;-88
2021/08/13 01:49:55;;;;;;;5.60;4.12;;;;;;;30.01;39.29;101590.31;143726;599;47006;-89
2021/08/13 01:52:24;;;;;;;6.62;4.45;;;;;;;30.03;39.41;101576.97;143723;567;47009;-89
2021/08/13 01:54:53;;;;;;;5.93;4.25;;;;;;;30.02;39.38;101583.66;143725;589;47004;-87
2021/08/13 01:57:21;;;;;;;6.87;4.47;;;;;;;30.03;39.53;101576.97;143720;590;47002;-88
2021/08/13 01:59:50;;;;;;;8.35;4.03;;;;;;;30.05;37.95;101579.47;143726;615;47004;-88
2021/08/13 02:02:18;;;;;;;7.62;3.70;;;;;;;30.02;37.29;101577.31;143724;584;47016;-88
2021/08/13 02:04:46;;;;;;;5.85;3.87;;;;;;;30.03;36.72;101579.75;143725;567;47002;-89
2021/08/13 02:07:13;;;;;;;6.65;3.85;;;;;;;30.06;37.06;101583.88;143722;567;48009;-87
2021/08/13 02:09:41;;;;;;;4.32;3.62;;;;;;;29.92;36.57;101581.06;143727;573;47002;-88
2021/08/13 02:12:08;;;;;;;5.82;3.80;;;;;;;29.95;36.79;101581.31;143723;569;48008;-89
2021/08/13 02:14:37;;;;;;;8.00;3.95;;;;;;;30.02;37.28;101583.66;143725;633;47005;-91
2021/08/13 02:17:11;;;;;;;6.82;3.72;;;;;;;30.03;37.02;101584.47;143727;591;45012;-88
2021/08/13 02:20:07;;;;;;;5.62;4.18;;;;;;;30.03;37.06;101595.56;143727;572;47002;-89
2021/08/13 02:22:35;;;;;;;4.72;4.00;;;;;;;30.03;36.13;101596.37;143725;578;47009;-87
2021/08/13 02:25:04;;;;;;;5.65;3.87;;;;;;;30.07;37.33;101602.13;143724;580;47004;-87
2021/08/13 02:27:33;;;;;;;4.25;3.53;;;;;;;30.08;37.19;101603.78;143726;590;46002;-87
2021/08/13 02:30:00;;;;;;;4.80;4.28;;;;;;;30.10;36.22;101595.94;143728;592;47004;-87
2021/08/13 02:32:28;;;;;;;6.07;3.60;;;;;;;30.11;35.44;101594.81;143712;573;50004;-88
2021/08/13 02:34:56;;;;;;;5.68;3.83;;;;;;;30.14;36.06;101598.94;143725;590;47002;-91
2021/08/13 02:38:00;;;;;;;7.72;3.72;;;;;;;30.11;36.85;101600.34;143725;583;45922;-87
2021/08/13 02:40:33;;;;;;;4.62;3.50;;;;;;;30.08;38.07;101604.56;143729;603;47004;-88
2021/08/13 02:43:15;;;;;;;5.87;4.07;;;;;;;30.05;38.70;101604.38;143725;582;47004;-88
2021/08/13 02:45:47;;;;;;;8.35;4.12;;;;;;;30.02;38.74;101613.31;143725;673;47002;-90
2021/08/13 02:48:16;;;;;;;5.95;4.05;;;;;;;30.00;39.26;101608.09;143725;577;46000;-90
2021/08/13 02:50:44;;;;;;;6.12;4.45;;;;;;;29.99;39.60;101608.38;143728;645;47004;-86
2021/08/13 02:53:22;;;;;;;5.40;3.92;;;;;;;29.97;39.24;101605.94;143722;599;50010;-88
2021/08/13 02:56:03;;;;;;;5.62;4.20;;;;;;;29.96;38.95;101612.59;143727;578;46008;-88
2021/08/13 02:58:53;;;;;;;6.85;4.40;;;;;;;29.97;38.84;101617.00;143725;569;46000;-87
2021/08/13 03:01:24;;;;;;;5.37;4.00;;;;;;;29.99;38.67;101611.16;143726;567;48009;-89
2021/08/13 03:03:53;;;;;;;4.53;4.12;;;;;;;30.01;38.36;101612.47;143718;575;47002;-88
2021/08/13 03:06:24;;;;;;;7.95;4.62;;;;;;;30.03;39.27;101623.25;143725;624;47002;-88
2021/08/13 03:08:51;;;;;;;7.22;4.45;;;;;;;30.02;39.57;101622.44;143724;580;48004;-88
2021/08/13 03:11:20;;;;;;;9.02;4.22;;;;;;;30.02;39.61;101622.44;143727;592;47004;-87
2021/08/13 03:13:48;;;;;;;8.70;4.15;;;;;;;30.02;39.05;101616.09;143723;692;49002;-86
2021/08/13 03:16:17;;;;;;;7.62;4.25;;;;;;;30.02;40.08;101625.19;143725;642;47004;-88
2021/08/13 03:18:45;;;;;;;5.37;4.07;;;;;;;30.05;38.81;101612.69;143726;620;46006;-88
2021/08/13 03:21:13;;;;;;;5.25;4.12;;;;;;;30.03;39.36;101624.06;143727;662;47002;-87
2021/08/13 03:23:40;;;;;;;7.40;4.10;;;;;;;30.03;39.36;101634.34;143725;584;47008;-89
2021/08/13 03:26:08;;;;;;;7.60;4.40;;;;;;;30.03;39.70;101637.13;143724;601;47004;-87
2021/08/13 03:28:36;;;;;;;8.05;4.65;;;;;;;29.99;40.19;101638.84;143727;610;45013;-88
2021/08/13 03:31:04;;;;;;;7.43;4.80;;;;;;;29.97;40.42;101636.41;143727;594;47002;-87
2021/08/13 03:33:31;;;;;;;9.63;4.93;;;;;;;29.95;40.74;101646.94;143708;567;50002;-89
2021/08/13 03:35:59;;;;;;;7.62;4.37;;;;;;;29.89;41.85;101651.75;143724;568;47004;-89
2021/08/13 03:38:26;;;;;;;5.60;4.43;;;;;;;29.84;41.48;101653.78;143725;580;45926;-87
2021/08/13 03:40:54;;;;;;;11.70;5.80;;;;;;;29.82;42.16;101654.09;143727;600;47002;-88
2021/08/13 03:43:20;;;;;;;7.07;4.43;;;;;;;29.82;41.69;101650.53;143723;591;49008;-88
2021/08/13 03:45:47;;;;;;;5.87;4.20;;;;;;;29.80;41.56;101651.66;143724;575;47004;-89
2021/08/13 03:48:14;;;;;;;9.10;4.55;;;;;;;29.80;41.68;101662.75;143726;658;45926;-87
2021/08/13 03:50:41;;;;;;;9.75;4.75;;;;;;;29.78;40.82;101662.22;143726;602;47004;-89
2021/08/13 03:53:08;;;;;;;8.98;4.18;;;;;;;29.80;40.69;101664.66;143724;581;47010;-89
2021/08/13 03:55:35;;;;;;;6.75;4.40;;;;;;;29.83;41.66;101663.25;143725;671;47002;-87
2021/08/13 03:58:02;;;;;;;6.18;4.62;;;;;;;29.81;41.81;101663.53;143727;576;45924;-88
2021/08/13 04:00:29;;;;;;;10.55;5.05;;;;;;;29.77;42.02;101656.97;143726;568;47004;-88
2021/08/13 04:02:57;;;;;;;5.55;4.35;;;;;;;29.80;41.77;101659.12;143725;611;47008;-90
2021/08/13 04:05:24;;;;;;;5.12;4.35;;;;;;;29.79;41.54;101663.87;143725;589;47004;-88
2021/08/13 04:07:51;;;;;;;7.55;4.70;;;;;;;29.82;41.75;101650.53;143723;603;49017;-89
2021/08/13 04:10:18;;;;;;;9.40;4.78;;;;;;;29.82;41.91;101658.84;143731;574;46004;-89
2021/08/13 04:12:45;;;;;;;7.93;4.45;;;;;;;29.84;42.37;101659.34;143724;590;47008;-87
2021/08/13 04:15:12;;;;;;;8.23;4.97;;;;;;;29.83;42.47;101654.94;143725;606;47004;-89
2021/08/13 04:17:40;;;;;;;13.90;5.37;;;;;;;29.83;42.33;101664.06;143719;597;48015;-88
2021/08/13 04:20:07;;;;;;;7.45;5.07;;;;;;;29.79;41.68;101661.09;143726;589;47002;-87
2021/08/13 04:22:34;;;;;;;9.20;4.70;;;;;;;29.77;42.42;101668.88;143724;569;47021;-88
2021/08/13 04:25:02;;;;;;;5.93;4.40;;;;;;;29.75;41.72;101673.91;143727;573;47004;-89
2021/08/13 04:27:29;;;;;;;9.98;4.65;;;;;;;29.78;41.67;101670.53;143726;582;45918;-88
2021/08/13 04:29:56;;;;;;;7.60;4.82;;;;;;;29.80;41.86;101673.81;143727;609;47004;-87
2021/08/13 04:32:23;;;;;;;8.13;5.25;;;;;;;29.80;42.02;101676.59;143725;588;46031;-87
2021/08/13 04:34:51;;;;;;;8.43;4.37;;;;;;;29.82;42.04;101681.00;143725;583;47002;-88
2021/08/13 04:37:18;;;;;;;6.62;4.72;;;;;;;29.84;42.31;101687.03;143720;626;51004;-87
2021/08/13 04:39:45;;;;;;;7.70;4.62;;;;;;;29.86;42.63;101688.38;143722;653;48020;-88
2021/08/13 04:42:13;;;;;;;7.70;4.72;;;;;;;29.88;42.56;101686.12;143725;584;47010;-87
2021/08/13 04:44:40;;;;;;;13.10;5.03;;;;;;;29.89;42.41;101685.00;143723;659;47004;-88
2021/08/13 04:47:07;;;;;;;11.63;5.32;;;;;;;29.90;42.38;101686.63;143727;578;45926;-88
2021/08/13 04:49:34;;;;;;;6.57;5.47;;;;;;;29.93;42.32;101691.53;143727;632;47002;-88
2021/08/13 04:52:02;;;;;;;10.68;5.28;;;;;;;29.95;43.10;101686.56;143725;590;47010;-88
2021/08/13 04:54:29;;;;;;;13.93;6.50;;;;;;;29.97;42.94;101685.41;143724;578;47002;-88
2021/08/13 04:56:56;;;;;;;11.80;5.15;;;;;;;30.00;42.85;101680.09;143727;599;45924;-87
2021/08/13 04:59:23;;;;;;;10.52;5.65;;;;;;;30.03;41.46;101685.00;143723;649;48003;-89
2021/08/13 05:01:51;;;;;;;13.85;5.37;;;;;;;30.06;41.55;101686.38;143726;567;47010;-87
2021/08/13 05:04:18;;;;;;;11.32;5.53;;;;;;;30.08;41.76;101675.78;143724;574;47004;-86
2021/08/13 05:06:45;;;;;;;12.05;5.50;;;;;;;30.12;41.01;101687.87;143727;575;45012;-88
2021/08/13 05:09:12;;;;;;;10.75;4.90;;;;;;;30.16;41.12;101688.91;143717;589;48004;-86
2021/08/13 05:11:40;;;;;;;8.38;5.32;;;;;;;30.19;41.00;101691.06;143726;610;47008;-88
2021/08/13 05:14:07;;;;;;;8.82;5.20;;;;;;;30.22;41.23;101698.75;143725;600;47005;-88
2021/08/13 05:16:34;;;;;;;11.43;5.65;;;;;;;30.30;40.52;101702.75;143726;615;45926;-88
2021/08/13 05:19:01;;;;;;;5.87;4.47;;;;;;;30.33;40.13;101704.91;143728;732;47002;-89
2021/08/13 05:21:28;;;;;;;8.57;5.65;;;;;;;30.37;40.14;101692.06;143727;602;47011;-88
2021/08/13 05:23:56;;;;;;;12.15;4.53;;;;;;;30.41;39.35;101700.59;143724;568;48004;-88
2021/08/13 05:26:23;;;;;;;9.85;5.20;;;;;;;30.47;39.42;101706.84;143728;621;46002;-88
2021/08/13 05:28:50;;;;;;;7.72;5.68;;;;;;;30.53;39.77;101694.53;143724;576;47004;-88
2021/08/13 05:31:17;;;;;;;7.72;4.80;;;;;;;30.55;39.86;101698.63;143727;572;46012;-89
2021/08/13 05:33:44;;;;;;;7.53;4.53;;;;;;;30.62;39.43;101697.41;143722;582;47002;-88
2021/08/13 05:36:15;;;;;;;11.30;6.68;;;;;;;30.66;38.53;101701.16;143728;572;45925;-88
2021/08/13 05:38:42;;;;;;;9.30;7.45;;;;;;;30.71;38.52;101706.59;143726;594;47002;-88
2021/08/13 05:41:09;;;;;;;10.85;6.50;;;;;;;30.76;38.96;101705.66;143725;566;47010;-87
2021/08/13 05:43:36;;;;;;;6.97;4.70;;;;;;;30.81;38.49;101706.34;143709;575;50009;-90
2021/08/13 05:46:04;;;;;;;7.72;5.22;;;;;;;30.88;38.83;101705.94;143726;568;45918;-89
2021/08/13 05:48:31;;;;;;;11.25;4.90;;;;;;;30.92;37.98;101706.94;143728;590;47004;-88
2021/08/13 05:50:58;;;;;;;7.53;4.87;;;;;;;30.95;37.74;101706.31;143722;581;47011;-88
2021/08/13 05:53:25;;;;;;;7.93;4.55;;;;;;;31.00;38.27;101705.38;143725;590;47002;-89
2021/08/13 05:55:53;;;;;;;7.15;4.70;;;;;;;31.06;38.24;101708.88;143721;587;50004;-88
2021/08/13 05:58:19;;;;;;;13.93;5.03;;;;;;;31.10;38.39;101715.41;143727;583;47002;-89
2021/08/13 06:00:46;;;;;;;14.77;5.37;;;;;;;31.13;37.96;101710.09;143726;601;46031;-87
2021/08/13 06:03:14;;;;;;;10.27;4.95;;;;;;;31.18;37.85;101716.62;143726;617;47004;-88
2021/08/13 06:05:41;;;;;;;10.00;5.20;;;;;;;31.24;37.97;101715.37;143727;600;46003;-88
2021/08/13 06:08:08;;;;;;;8.82;5.05;;;;;;;31.29;37.30;101720.81;143728;574;47002;-85
2021/08/13 06:10:35;;;;;;;8.75;5.70;;;;;;;31.33;37.10;101715.44;143725;569;47010;-87
2021/08/13 06:13:02;;;;;;;8.98;6.05;;;;;;;31.38;37.41;101715.31;143726;607;47004;-90
2021/08/13 06:15:29;;;;;;;12.27;6.30;;;;;;;31.44;37.65;101716.81;143715;600;47004;-88
2021/08/13 06:17:56;;;;;;;12.82;6.53;;;;;;;31.50;37.13;101721.09;143728;589;47013;-89
2021/08/13 06:20:25;;;;;;;9.27;5.57;;;;;;;31.57;36.49;101717.84;143724;691;47010;-88
2021/08/13 06:22:52;;;;;;;7.75;5.78;;;;;;;31.62;36.28;101723.28;143726;620;47002;-86
2021/08/13 06:25:18;;;;;;;11.38;5.70;;;;;;;31.67;36.25;101728.72;143727;588;45925;-87
2021/08/13 06:27:46;;;;;;;10.45;6.35;;;;;;;31.73;35.92;101729.41;143729;637;46004;-87
2021/08/13 06:30:18;;;;;;;7.12;5.90;;;;;;;31.80;36.36;101734.50;143722;572;50008;-88
2021/08/13 06:32:45;;;;;;;10.27;5.80;;;;;;;31.84;34.95;101721.63;143722;577;48004;-86
2021/08/13 06:35:12;;;;;;;7.43;5.40;;;;;;;31.91;34.95;101724.75;143725;597;45919;-89
2021/08/13 06:37:47;;;;;;;11.35;5.22;;;;;;;31.98;35.34;101727.06;143729;610;47000;-87
2021/08/13 06:40:14;;;;;;;10.90;5.12;;;;;;;32.05;35.38;101731.00;143723;595;47010;-87
2021/08/13 06:42:42;;;;;;;7.47;4.85;;;;;;;32.11;35.46;101731.72;143724;618;47004;-87
2021/08/13 06:45:11;;;;;;;6.90;4.28;;;;;;;32.15;35.63;101738.25;143725;619;47000;-87
2021/08/13 06:47:38;;;;;;;6.85;5.25;;;;;;;32.20;35.58;101731.75;143722;637;47004;-86
2021/08/13 06:50:06;;;;;;;8.18;5.15;;;;;;;32.24;34.88;101737.47;143727;624;47006;-87
2021/08/13 06:52:34;;;;;;;6.25;4.35;;;;;;;32.23;35.33;101733.84;143726;587;47002;-88
2021/08/13 06:55:01;;;;;;;6.25;4.85;;;;;;;32.28;35.41;101730.97;143727;594;46002;-87
2021/08/13 06:57:28;;;;;;;5.82;4.70;;;;;;;32.28;35.64;101739.28;143726;581;48003;-86
2021/08/13 06:59:55;;;;;;;6.60;4.65;;;;;;;32.27;35.09;101736.84;143726;576;47010;-86
2021/08/13 07:02:23;;;;;;;5.78;4.40;;;;;;;32.26;35.31;101743.53;143726;575;48004;-89
2021/08/13 07:04:50;;;;;;;5.95;4.37;;;;;;;32.32;35.35;101745.84;143728;596;45919;-86
2021/08/13 07:07:17;;;;;;;10.57;4.80;;;;;;;32.39;35.28;101744.56;143729;592;47004;-87
2021/08/13 07:09:46;;;;;;;6.57;5.10;;;;;;;32.45;35.19;101748.81;143726;572;47018;-86
2021/08/13 07:12:18;;;;;;;7.28;4.70;;;;;;;32.55;34.92;101742.13;143727;596;47002;-86
2021/08/13 07:14:47;;;;;;;5.00;4.45;;;;;;;32.60;34.85;101742.00;143726;585;45924;-86
2021/08/13 07:17:14;;;;;;;7.80;4.60;;;;;;;32.65;34.73;101739.88;143721;603;49002;-87
2021/08/13 07:19:41;;;;;;;6.32;4.47;;;;;;;32.70;34.84;101749.19;143725;594;47010;-87
2021/08/13 07:22:08;;;;;;;6.12;4.75;;;;;;;32.68;34.63;101749.50;143725;573;47002;-87
2021/08/13 07:24:35;;;;;;;6.87;4.12;;;;;;;32.71;34.35;101743.31;143728;568;45924;-87
2021/08/13 07:27:02;;;;;;;5.85;4.30;;;;;;;32.78;34.79;101742.81;143726;583;47004;-86
2021/08/13 07:29:30;;;;;;;6.15;4.57;;;;;;;32.88;34.30;101736.97;143725;576;46024;-88
2021/08/13 07:31:57;;;;;;;6.45;4.30;;;;;;;32.99;34.24;101743.03;143720;592;47002;-89
2021/08/13 07:34:24;;;;;;;4.90;4.10;;;;;;;33.01;33.71;101740.72;143726;615;46004;-87
2021/08/13 07:36:51;;;;;;;4.57;4.12;;;;;;;33.06;34.31;101740.56;143727;590;47006;-86
2021/08/13 07:39:19;;;;;;;6.35;4.28;;;;;;;33.09;33.56;101742.69;143726;573;46012;-87
2021/08/13 07:41:46;;;;;;;5.18;3.90;;;;;;;33.11;33.98;101747.91;143725;569;48002;-88
2021/08/13 07:44:13;;;;;;;7.20;4.85;;;;;;;33.06;33.31;101753.66;143726;572;45925;-87
2021/08/13 07:46:41;;;;;;;5.97;3.80;;;;;;;32.98;32.80;101748.91;143729;566;47002;-85
2021/08/13 07:49:08;;;;;;;4.80;3.95;;;;;;;32.92;32.81;101756.59;143727;586;47010;-85
2021/08/13 07:51:35;;;;;;;5.65;3.85;;;;;;;32.96;33.38;101752.84;143721;672;48004;-86
2021/08/13 07:54:02;;;;;;;4.85;4.05;;;;;;;32.95;33.86;101755.97;143727;604;45918;-87
2021/08/13 07:56:29;;;;;;;4.75;3.85;;;;;;;33.04;33.88;101759.53;143727;596;48004;-87
2021/08/13 07:58:56;;;;;;;6.00;4.20;;;;;;;33.10;34.59;101758.25;143725;573;47008;-87
2021/08/13 08:01:23;;;;;;;7.15;3.83;;;;;;;33.13;35.29;101751.19;143725;584;48004;-87
2021/08/13 08:03:50;;;;;;;7.62;3.95;;;;;;;33.20;35.37;101747.91;143728;569;45926;-87
2021/08/13 08:06:18;;;;;;;4.82;4.03;;;;;;;33.24;35.70;101758.06;143728;567;47002;-87
2021/08/13 08:08:45;;;;;;;6.45;4.10;;;;;;;33.21;35.60;101766.25;143726;659;47008;-92
2021/08/13 08:11:12;;;;;;;6.30;4.35;;;;;;;33.13;35.79;101772.66;143726;628;47005;-88
2021/08/13 08:13:40;;;;;;;5.60;3.80;;;;;;;33.17;36.44;101768.87;143730;619;45012;-86
2021/08/13 08:16:06;;;;;;;5.37;4.50;;;;;;;33.16;36.59;101767.25;143729;576;47002;-87
2021/08/13 08:18:34;;;;;;;6.15;4.60;;;;;;;33.18;37.19;101770.53;143727;594;46010;-86
2021/08/13 08:21:01;;;;;;;5.05;4.25;;;;;;;33.23;37.08;101763.97;143724;602;47004;-88
2021/08/13 08:23:28;;;;;;;5.00;4.30;;;;;;;33.30;37.89;101775.44;143721;596;49010;-88
2021/08/13 08:25:55;;;;;;;6.53;4.15;;;;;;;33.37;37.64;101772.16;143727;626;47002;-88
2021/08/13 08:28:22;;;;;;;7.30;4.50;;;;;;;33.42;37.31;101774.78;143726;585;47008;-87
2021/08/13 08:30:49;;;;;;;5.20;3.97;;;;;;;33.45;37.71;101768.53;143726;574;47004;-87
2021/08/13 08:33:16;;;;;;;5.37;4.60;;;;;;;33.54;37.37;101768.53;143725;573;46007;-86
2021/08/13 08:35:43;;;;;;;5.15;3.97;;;;;;;33.52;37.06;101768.06;143726;592;48009;-88
2021/08/13 08:38:10;;;;;;;7.12;4.53;;;;;;;33.52;36.79;101773.63;143727;603;47010;-89
2021/08/13 08:40:38;;;;;;;5.37;4.05;;;;;;;33.59;36.56;101767.56;143728;621;47004;-87
2021/08/13 08:43:07;;;;;;;7.90;4.07;;;;;;;33.71;36.32;101770.47;143722;614;47008;-85
2021/08/13 08:45:38;;;;;;;5.78;3.95;;;;;;;33.65;36.18;101772.59;143730;577;47002;-87
2021/08/13 08:48:07;;;;;;;6.40;4.30;;;;;;;33.72;36.70;101766.53;143724;609;48007;-87
2021/08/13 08:50:37;;;;;;;5.43;4.50;;;;;;;33.80;36.32;101773.22;143728;579;47004;-87
2021/08/13 08:53:28;;;;;;;5.70;3.70;;;;;;;33.86;35.58;101766.31;143725;654;46993;-86
2021/08/13 08:55:56;;;;;;;8.30;4.50;;;;;;;33.89;36.36;101759.25;143730;577;47004;-86
2021/08/13 08:58:24;;;;;;;6.93;4.47;;;;;;;34.04;35.40;101764.31;143724;593;47008;-88
2021/08/13 09:00:52;;;;;;;4.07;3.58;;;;;;;34.07;34.96;101760.00;143726;585;47004;-87
2021/08/13 09:03:23;;;;;;;4.18;3.53;;;;;;;34.10;33.44;101760.19;143729;581;45013;-85
2021/08/13 09:05:51;;;;;;;4.03;3.50;;;;;;;33.97;32.31;101766.81;143731;601;47002;-84
2021/08/13 09:08:18;;;;;;;7.68;3.85;;;;;;;34.01;33.27;101767.75;143726;581;47012;-88
2021/08/13 09:10:46;;;;;;;4.93;3.53;;;;;;;34.08;33.62;101772.81;143726;599;47002;-85
2021/08/13 09:13:13;;;;;;;5.45;3.90;;;;;;;34.03;33.93;101773.81;143727;573;45921;-86
2021/08/13 09:15:42;;;;;;;4.30;3.90;;;;;;;33.97;34.55;101767.59;143731;588;46019;-85
2021/08/13 09:18:41;;;;;;;5.80;3.97;;;;;;;34.03;35.58;101759.06;143723;631;49004;-85
2021/08/13 09:21:08;;;;;;;5.93;3.87;;;;;;;34.14;35.17;101771.47;143726;633;47002;-85
2021/08/13 09:23:43;;;;;;;3.67;3.35;;;;;;;33.97;34.90;101772.37;143726;632;46002;-88
2021/08/13 09:26:17;;;;;;;5.68;3.30;;;;;;;34.04;34.42;101777.44;143729;600;47004;-86
2021/08/13 09:28:59;;;;;;;4.90;2.87;;;;;;;33.95;32.71;101766.31;143721;679;47013;-84
2021/08/13 09:31:34;;;;;;;8.63;3.00;;;;;;;34.13;33.76;101761.47;143725;729;47002;-86
2021/08/13 09:34:12;;;;;;;4.62;3.10;;;;;;;34.25;33.23;101763.56;143729;615;46002;-84
2021/08/13 09:36:54;;;;;;;5.20;3.10;;;;;;;34.07;32.37;101766.44;143730;613;47004;-85
2021/08/13 09:39:26;;;;;;;5.18;3.05;;;;;;;34.22;32.91;101775.38;143727;574;47012;-84
2021/08/13 09:41:56;;;;;;;3.67;2.90;;;;;;;34.27;29.10;101759.25;143728;640;47002;-84
2021/08/13 09:44:32;;;;;;;4.60;3.03;;;;;;;34.35;28.48;101757.56;143730;683;45924;-85
2021/08/13 09:47:05;;;;;;;5.25;3.15;;;;;;;34.53;28.78;101757.50;143729;593;47004;-84
2021/08/13 09:49:33;;;;;;;3.62;2.50;;;;;;;34.80;28.92;101746.97;143727;660;46021;-85
2021/08/13 09:52:14;;;;;;;6.05;2.92;;;;;;;34.84;28.23;101754.31;143729;697;47002;-85
2021/08/13 09:54:42;;;;;;;3.33;2.40;;;;;;;34.78;27.94;101754.88;143728;573;46004;-84
2021/08/13 09:57:13;;;;;;;6.82;2.92;;;;;;;34.75;27.63;101754.38;143725;667;50002;-86
2021/08/13 10:00:01;;;;;;;5.07;3.00;;;;;;;34.62;27.02;101758.28;143727;581;47004;-85
2021/08/13 10:02:38;;;;;;;7.28;3.50;;;;;;;34.53;29.01;101760.28;143726;604;47013;-86
2021/08/13 10:05:25;;;;;;;10.50;5.12;;;;;;;34.58;29.66;101746.16;143730;668;45925;-85
2021/08/13 10:08:00;;;;;;;7.10;3.05;;;;;;;34.66;30.42;101750.88;143728;611;47004;-85
2021/08/13 10:10:47;;;;;;;7.82;3.90;;;;;;;34.69;30.00;101750.16;143727;573;47009;-86
2021/08/13 10:13:15;;;;;;;6.18;3.12;;;;;;;34.71;28.96;101766.56;143729;613;46002;-85
2021/08/13 10:15:44;;;;;;;4.90;3.12;;;;;;;34.48;27.97;101746.56;143727;596;45924;-85
2021/08/13 10:18:13;;;;;;;17.80;7.57;;;;;;;34.41;29.26;101749.84;143725;595;48006;-83
2021/08/13 10:20:47;;;;;;;9.20;4.10;;;;;;;34.54;30.14;101748.81;143729;584;47008;-85
2021/08/13 10:23:14;;;;;;;4.53;3.50;;;;;;;34.64;29.02;101758.75;143729;604;47004;-84
2021/08/13 10:25:42;;;;;;;6.68;3.47;;;;;;;34.72;29.75;101752.28;143727;627;46009;-87
2021/08/13 10:28:09;;;;;;;7.03;3.15;;;;;;;34.63;30.98;101753.50;143726;567;48002;-86
2021/08/13 10:30:36;;;;;;;5.70;3.22;;;;;;;34.74;30.46;101746.38;143726;574;47016;-88
2021/08/13 10:33:07;;;;;;;5.70;3.10;;;;;;;34.79;30.75;101759.28;143726;586;47004;-86
2021/08/13 10:35:51;;;;;;;4.32;3.08;;;;;;;34.70;31.69;101762.94;143732;619;45919;-87
2021/08/13 10:38:21;;;;;;;5.55;3.20;;;;;;;34.85;30.88;101760.72;143727;593;50002;-86
2021/08/13 10:40:50;;;;;;;6.95;3.28;;;;;;;35.03;29.47;101750.25;143727;573;47006;-87
2021/08/13 10:43:21;;;;;;;3.78;3.12;;;;;;;35.19;29.43;101745.66;143726;592;47002;-86
2021/08/13 10:45:55;;;;;;;5.07;3.45;;;;;;;35.26;30.09;101745.09;143727;652;47000;-87
2021/08/13 10:48:27;;;;;;;7.53;3.22;;;;;;;35.22;31.33;101749.75;143726;580;50004;-88
2021/08/13 10:51:01;;;;;;;5.47;3.15;;;;;;;35.24;30.83;101752.22;143730;602;46004;-87
2021/08/13 10:53:30;;;;;;;9.18;3.60;;;;;;;35.20;30.45;101752.88;143727;567;47002;-87
2021/08/13 10:55:59;;;;;;;6.55;3.20;;;;;;;35.20;31.62;101749.28;143726;676;48004;-87
2021/08/13 10:58:57;;;;;;;6.22;3.30;;;;;;;35.26;30.71;101744.31;143730;586;48004;-85
2021/08/13 11:01:24;;;;;;;6.50;3.25;;;;;;;35.34;31.54;101741.41;143728;622;46025;-88
2021/08/13 11:04:10;;;;;;;7.18;3.25;;;;;;;35.21;30.98;101745.34;143718;604;47008;-86
2021/08/13 11:06:46;;;;;;;4.68;3.25;;;;;;;35.14;30.77;101743.06;143729;580;45924;-88
2021/08/13 11:09:31;;;;;;;4.82;3.08;;;;;;;35.05;32.16;101739.56;143726;618;49004;-86
2021/08/13 11:12:04;;;;;;;5.18;3.33;;;;;;;35.10;31.64;101744.94;143728;572;46011;-87
2021/08/13 11:14:33;;;;;;;7.70;3.33;;;;;;;35.20;31.26;101743.72;143722;577;48004;-88
2021/08/13 11:17:02;;;;;;;4.95;3.28;;;;;;;35.20;29.62;101738.94;143729;629;45924;-85
2021/08/13 11:19:49;;;;;;;4.12;3.15;;;;;;;34.97;31.03;101740.44;143730;609;47002;-87
2021/08/13 11:22:35;;;;;;;4.65;3.22;;;;;;;34.99;29.07;101736.19;143727;586;47010;-88
2021/08/13 11:25:06;;;;;;;4.20;3.05;;;;;;;35.08;30.49;101738.06;143728;570;47004;-87
2021/08/13 11:27:34;;;;;;;4.90;3.00;;;;;;;35.18;31.15;101732.88;143730;567;45918;-85
2021/08/13 11:30:01;;;;;;;3.60;3.10;;;;;;;35.15;30.32;101727.16;143730;581;47011;-88
2021/08/13 11:32:31;;;;;;;4.22;3.10;;;;;;;35.26;29.07;101727.53;143724;579;49011;-84
2021/08/13 11:35:08;;;;;;;5.80;3.37;;;;;;;35.25;29.91;101728.72;143730;614;47002;-85
2021/08/13 11:37:45;;;;;;;5.72;3.20;;;;;;;35.12;28.76;101723.09;143733;597;45925;-87